createdAt,value
2023-05-09T00:01:31.752Z,78.45
2023-05-09T00:04:35.507Z,78.69
2023-05-09T00:07:38.416Z,79.21
2023-05-09T00:10:41.794Z,79.56
2023-05-09T00:13:44.608Z,79.66
2023-05-09T00:16:47.664Z,79.81
2023-05-09T00:19:51.222Z,79.99
2023-05-09T00:22:55.188Z,80.67
2023-05-09T00:25:59.156Z,80.53
2023-05-09T00:29:01.992Z,80.36
2023-05-09T00:32:05.041Z,80.11
2023-05-09T00:35:09.079Z,80.01
2023-05-09T00:38:12.107Z,80.14
2023-05-09T00:41:15.591Z,80.72
2023-05-09T00:44:18.457Z,80.77
2023-05-09T00:47:23.900Z,80.80
2023-05-09T00:50:26.553Z,81.10
2023-05-09T00:53:29.488Z,81.18
2023-05-09T00:56:32.197Z,81.80
2023-05-09T00:59:36.105Z,81.52
2023-05-09T01:02:43.677Z,81.80
2023-05-09T01:05:58.117Z,82.28
2023-05-09T01:09:15.578Z,82.41
2023-05-09T01:12:30.716Z,82.73
2023-05-09T01:15:39.373Z,82.65
2023-05-09T01:18:51.376Z,82.70
2023-05-09T01:21:54.751Z,82.43
2023-05-09T01:25:10.384Z,82.86
2023-05-09T01:28:37.021Z,82.85
2023-05-09T01:31:41.921Z,83.25
2023-05-09T01:34:45.900Z,83.35
2023-05-09T01:37:50.595Z,83.74
2023-05-09T01:40:55.386Z,84.02
2023-05-09T01:43:59.627Z,84.00
2023-05-09T01:47:03.288Z,84.20
2023-05-09T01:50:07.258Z,84.58
2023-05-09T01:53:11.326Z,84.91
2023-05-09T01:56:15.207Z,85.02
2023-05-09T01:59:18.503Z,85.13
2023-05-09T02:02:21.770Z,85.13
2023-05-09T02:05:29.159Z,85.12
2023-05-09T02:08:32.871Z,85.41
2023-05-09T02:11:36.442Z,85.46
2023-05-09T02:14:39.043Z,85.59
2023-05-09T02:17:42.432Z,85.73
2023-05-09T02:20:45.883Z,86.07
2023-05-09T02:23:48.676Z,86.37
2023-05-09T02:26:51.515Z,86.42
2023-05-09T02:29:57.633Z,86.40
2023-05-09T02:33:04.041Z,86.55
2023-05-09T02:36:08.476Z,86.75
2023-05-09T02:39:11.439Z,86.66
2023-05-09T02:42:21.972Z,86.83
2023-05-09T02:45:25.757Z,86.69
2023-05-09T02:48:28.674Z,86.79
2023-05-09T02:51:31.636Z,87.00
2023-05-09T02:54:34.495Z,87.00
2023-05-09T02:57:37.652Z,87.20
2023-05-09T03:00:40.375Z,87.06
2023-05-09T03:03:44.121Z,87.17
2023-05-09T03:06:47.227Z,86.81
2023-05-09T03:09:50.333Z,87.08
2023-05-09T03:12:52.979Z,87.15
2023-05-09T03:15:55.872Z,87.40
2023-05-09T03:18:58.426Z,87.27
2023-05-09T03:22:01.721Z,87.21
2023-05-09T03:25:06.446Z,87.01
2023-05-09T03:28:09.473Z,87.02
2023-05-09T03:31:12.437Z,86.75
2023-05-09T03:34:15.525Z,87.12
2023-05-09T03:37:18.812Z,87.27
2023-05-09T03:40:22.086Z,87.46
2023-05-09T03:43:25.599Z,87.72
2023-05-09T03:46:28.502Z,87.74
2023-05-09T03:49:31.375Z,87.62
2023-05-09T03:52:34.439Z,87.97
2023-05-09T03:55:37.546Z,87.83
2023-05-09T03:58:40.928Z,88.01
2023-05-09T04:01:43.846Z,87.90
2023-05-09T04:04:47.445Z,88.00
2023-05-09T04:07:52.049Z,88.13
2023-05-09T04:10:55.512Z,88.10
2023-05-09T04:13:59.666Z,88.10
2023-05-09T04:17:03.854Z,87.82
2023-05-09T04:20:08.273Z,88.00
2023-05-09T04:23:11.340Z,87.59
2023-05-09T04:26:14.694Z,88.07
2023-05-09T04:29:18.173Z,87.93
2023-05-09T04:32:23.375Z,87.94
2023-05-09T04:35:27.167Z,84.02
2023-05-09T04:38:30.006Z,83.81
2023-05-09T04:41:33.234Z,84.02
2023-05-09T04:44:36.118Z,84.51
2023-05-09T04:47:39.686Z,84.45
2023-05-09T04:50:42.329Z,84.90
2023-05-09T04:53:45.371Z,84.98
2023-05-09T04:56:50.153Z,84.66
2023-05-09T04:59:53.644Z,84.90
2023-05-09T05:02:56.387Z,82.14
2023-05-09T05:06:00.362Z,82.24
2023-05-09T05:09:03.717Z,81.71
2023-05-09T05:12:09.600Z,83.39
2023-05-09T05:15:13.790Z,83.61
2023-05-09T05:18:17.884Z,82.08
2023-05-09T05:21:20.531Z,83.01
2023-05-09T05:24:24.218Z,82.89
2023-05-09T05:27:26.976Z,82.61
2023-05-09T05:30:32.089Z,82.74
2023-05-09T05:33:36.914Z,83.29
2023-05-09T05:36:40.398Z,82.47
2023-05-09T05:39:43.171Z,82.17
2023-05-09T05:42:46.700Z,82.02
2023-05-09T05:45:49.684Z,81.10
2023-05-09T05:48:52.859Z,80.80
2023-05-09T05:51:55.462Z,81.24
2023-05-09T05:54:58.503Z,79.83
2023-05-09T05:58:01.123Z,78.63
2023-05-09T06:01:04.242Z,80.07
2023-05-09T06:04:07.565Z,79.32
2023-05-09T06:07:11.049Z,78.51
2023-05-09T06:10:15.981Z,77.37
2023-05-09T06:13:19.700Z,77.43
2023-05-09T06:16:23.602Z,77.70
2023-05-09T06:19:26.241Z,75.59
2023-05-09T06:22:29.103Z,74.33
2023-05-09T06:25:31.674Z,74.18
2023-05-09T06:28:34.564Z,74.59
2023-05-09T06:31:39.028Z,74.55
2023-05-09T06:34:42.190Z,72.57
2023-05-09T06:37:46.517Z,72.54
2023-05-09T06:40:50.554Z,70.81
2023-05-09T06:43:53.289Z,71.37
2023-05-09T06:46:56.116Z,69.21
2023-05-09T06:49:58.595Z,69.76
2023-05-09T06:53:01.343Z,69.81
2023-05-09T06:56:04.469Z,68.97
2023-05-09T06:59:07.876Z,69.66
2023-05-09T07:02:10.877Z,67.42
2023-05-09T07:05:14.046Z,67.61
2023-05-09T07:08:17.121Z,65.39
2023-05-09T07:11:20.019Z,64.67
2023-05-09T07:14:22.753Z,63.39
2023-05-09T07:17:25.793Z,63.99
2023-05-09T07:20:28.444Z,63.61
2023-05-09T07:23:31.528Z,64.13
2023-05-09T07:26:35.713Z,62.37
2023-05-09T07:29:38.839Z,61.32
2023-05-09T07:32:41.398Z,61.43
2023-05-09T07:35:44.308Z,61.34
2023-05-09T07:38:48.042Z,59.99
2023-05-09T07:41:50.902Z,60.80
2023-05-09T07:44:53.524Z,59.88
2023-05-09T07:47:56.352Z,59.36
2023-05-09T07:50:59.005Z,59.68
2023-05-09T07:54:01.828Z,58.91
2023-05-09T07:57:04.513Z,59.56
2023-05-09T08:00:08.878Z,57.30
2023-05-09T08:03:16.156Z,56.38
2023-05-09T08:06:19.352Z,56.26
2023-05-09T08:09:22.048Z,53.97
2023-05-09T08:12:24.982Z,55.18
2023-05-09T08:15:27.620Z,56.28
2023-05-09T08:18:30.501Z,55.41
2023-05-09T08:21:33.213Z,53.89
2023-05-09T08:24:36.115Z,53.02
2023-05-09T08:27:38.647Z,52.18
2023-05-09T08:30:41.630Z,50.54
2023-05-09T08:33:44.181Z,51.79
2023-05-09T08:36:47.110Z,51.66
2023-05-09T08:39:49.621Z,50.70
2023-05-09T08:42:52.630Z,48.61
2023-05-09T08:45:58.623Z,48.70
2023-05-09T08:49:01.626Z,48.26
2023-05-09T08:52:04.550Z,49.79
2023-05-09T08:55:07.812Z,48.30
2023-05-09T08:58:10.466Z,49.60
2023-05-09T09:01:14.325Z,48.65
2023-05-09T09:04:17.201Z,48.61
2023-05-09T09:07:20.248Z,47.67
2023-05-09T09:10:25.774Z,48.02
2023-05-09T09:13:29.328Z,46.18
2023-05-09T09:16:33.154Z,47.74
2023-05-09T09:19:37.460Z,46.53
2023-05-09T09:22:42.380Z,45.81
2023-05-09T09:25:48.409Z,44.32
2023-05-09T09:28:50.941Z,43.87
2023-05-09T09:31:55.163Z,44.32
2023-05-09T09:35:06.977Z,44.33
2023-05-09T09:38:09.871Z,43.88
2023-05-09T09:41:12.904Z,41.63
2023-05-09T09:44:18.068Z,43.86
2023-05-09T09:47:20.566Z,41.13
2023-05-09T09:50:24.842Z,41.07
2023-05-09T09:53:30.386Z,43.50
2023-05-09T09:56:45.013Z,42.49
2023-05-09T09:59:58.948Z,42.25
2023-05-09T10:03:02.103Z,44.77
2023-05-09T10:06:05.592Z,44.16
2023-05-09T10:09:08.140Z,41.81
2023-05-09T10:12:12.187Z,42.43
2023-05-09T10:15:18.716Z,42.34
2023-05-09T10:18:29.062Z,43.61
2023-05-09T10:21:33.104Z,45.09
2023-05-09T10:24:42.920Z,43.94
2023-05-09T10:27:46.779Z,44.23
2023-05-09T10:31:25.095Z,41.47
2023-05-09T10:34:29.157Z,39.63
2023-05-09T10:37:33.409Z,40.19
2023-05-09T10:40:36.393Z,41.42
2023-05-09T10:43:39.586Z,41.80
2023-05-09T10:46:42.462Z,40.18
2023-05-09T10:49:45.635Z,38.07
2023-05-09T10:53:14.237Z,38.24
2023-05-09T10:56:33.811Z,35.82
2023-05-09T10:59:36.368Z,36.56
2023-05-09T11:02:39.233Z,36.24
2023-05-09T11:05:42.176Z,36.58
2023-05-09T11:08:45.047Z,35.66
2023-05-09T11:11:58.474Z,35.47
2023-05-09T11:15:08.300Z,36.67
2023-05-09T11:18:11.003Z,36.96
2023-05-09T11:21:14.606Z,36.92
2023-05-09T11:24:17.678Z,37.00
2023-05-09T11:27:25.692Z,37.51
2023-05-09T11:30:43.909Z,38.56
2023-05-09T11:33:54.957Z,39.56
2023-05-09T11:37:09.759Z,39.49
2023-05-09T11:40:14.518Z,40.53
2023-05-09T11:43:18.577Z,41.51
2023-05-09T11:46:21.494Z,38.37
2023-05-09T11:49:24.142Z,40.12
2023-05-09T11:52:27.079Z,40.40
2023-05-09T11:55:32.765Z,39.35
2023-05-09T11:58:38.709Z,39.44
2023-05-09T12:01:41.393Z,41.21
2023-05-09T12:04:44.422Z,42.01
2023-05-09T12:07:47.784Z,40.40
2023-05-09T12:10:50.876Z,39.45
2023-05-09T12:13:53.434Z,39.80
2023-05-09T12:16:56.434Z,42.07
2023-05-09T12:20:00.580Z,43.03
2023-05-09T12:23:03.629Z,43.75
2023-05-09T12:26:06.852Z,43.12
2023-05-09T12:29:09.892Z,42.29
2023-05-09T12:32:14.342Z,42.80
2023-05-09T12:35:17.364Z,43.31
2023-05-09T12:38:23.378Z,43.88
2023-05-09T12:44:32.685Z,42.23
2023-05-09T12:47:35.549Z,39.87
2023-05-09T12:50:38.201Z,39.70
2023-05-09T12:53:41.668Z,40.25
2023-05-09T12:56:44.712Z,41.65
2023-05-09T12:59:47.569Z,42.51
2023-05-09T13:02:51.021Z,45.29
2023-05-09T13:05:56.181Z,45.58
2023-05-09T13:09:01.197Z,43.15
2023-05-09T13:12:04.339Z,44.31
2023-05-09T13:15:07.679Z,44.10
2023-05-09T13:18:11.438Z,44.27
2023-05-09T13:21:14.080Z,44.35
2023-05-09T13:24:16.870Z,43.23
2023-05-09T13:27:19.388Z,41.48
2023-05-09T13:30:22.408Z,41.19
2023-05-09T13:33:26.641Z,40.06
2023-05-09T13:36:29.859Z,41.27
2023-05-09T13:39:32.475Z,42.62
2023-05-09T13:42:35.427Z,42.39
2023-05-09T13:45:37.953Z,44.62
2023-05-09T13:48:41.873Z,44.32
2023-05-09T13:51:44.739Z,43.15
2023-05-09T13:54:47.678Z,42.79
2023-05-09T13:57:50.323Z,43.01
2023-05-09T14:00:53.277Z,43.84
2023-05-09T14:03:56.264Z,44.46
2023-05-09T14:06:59.956Z,45.49
2023-05-09T14:13:11.160Z,43.74
2023-05-09T14:16:14.615Z,44.18
2023-05-09T14:19:17.415Z,45.97
2023-05-09T14:22:20.677Z,44.60
2023-05-09T14:25:23.182Z,44.58
2023-05-09T14:28:25.959Z,44.74
2023-05-09T14:31:29.197Z,44.83
2023-05-09T14:34:31.996Z,43.91
2023-05-09T14:37:34.478Z,43.54
2023-05-09T14:40:37.334Z,43.77
2023-05-09T14:43:39.829Z,43.85
2023-05-09T14:46:42.926Z,43.27
2023-05-09T14:49:45.618Z,41.93
2023-05-09T14:52:49.637Z,42.39
2023-05-09T14:55:52.293Z,42.79
2023-05-09T14:58:55.093Z,43.11
2023-05-09T15:01:57.630Z,42.61
2023-05-09T15:05:00.668Z,43.91
2023-05-09T15:08:03.800Z,42.80
2023-05-09T15:11:07.979Z,42.29
2023-05-09T15:14:10.515Z,42.25
2023-05-09T15:17:13.428Z,44.59
2023-05-09T15:20:19.871Z,45.13
2023-05-09T15:23:23.063Z,46.72
2023-05-09T15:26:26.166Z,45.68
2023-05-09T15:29:28.980Z,46.14
2023-05-09T15:32:31.659Z,45.49
2023-05-09T15:35:34.557Z,44.93
2023-05-09T15:38:37.121Z,44.92
2023-05-09T15:41:40.102Z,45.54
2023-05-09T15:44:43.019Z,45.53
2023-05-09T15:47:45.906Z,46.04
2023-05-09T15:50:49.021Z,45.95
2023-05-09T15:53:52.060Z,46.94
2023-05-09T15:56:54.656Z,46.71
2023-05-09T15:59:57.554Z,46.79
2023-05-09T16:03:00.136Z,46.99
2023-05-09T16:06:03.424Z,46.50
2023-05-09T16:09:06.844Z,44.91
2023-05-09T16:12:09.744Z,47.48
2023-05-09T16:15:12.472Z,46.82
2023-05-09T16:18:15.351Z,46.02
2023-05-09T16:21:22.461Z,46.92
2023-05-09T16:24:25.360Z,46.08
2023-05-09T16:27:27.873Z,45.85
2023-05-09T16:30:30.700Z,46.87
2023-05-09T16:33:33.245Z,46.58
2023-05-09T16:36:37.680Z,46.41
2023-05-09T16:39:40.169Z,46.21
2023-05-09T16:42:43.158Z,47.88
2023-05-09T16:45:48.011Z,47.97
2023-05-09T16:48:52.239Z,47.25
2023-05-09T16:51:54.967Z,47.67
2023-05-09T16:54:59.398Z,48.18
2023-05-09T16:58:02.280Z,47.83
2023-05-09T17:01:05.623Z,49.03
2023-05-09T17:04:08.503Z,49.83
2023-05-09T17:07:12.766Z,49.96
2023-05-09T17:10:15.608Z,50.37
2023-05-09T17:13:18.984Z,50.50
2023-05-09T17:16:21.730Z,50.58
2023-05-09T17:19:24.594Z,50.83
2023-05-09T17:22:27.868Z,51.31
2023-05-09T17:25:30.818Z,51.49
2023-05-09T17:28:33.597Z,51.21
2023-05-09T17:31:36.432Z,51.91
2023-05-09T17:34:39.386Z,52.52
2023-05-09T17:37:42.197Z,52.95
2023-05-09T17:40:44.969Z,52.62
2023-05-09T17:43:47.831Z,53.16
2023-05-09T17:46:50.792Z,54.04
2023-05-09T17:49:53.706Z,53.56
2023-05-09T17:52:57.035Z,54.26
2023-05-09T17:56:01.165Z,54.48
2023-05-09T17:59:03.740Z,54.29
2023-05-09T18:02:07.786Z,54.09
2023-05-09T18:05:11.419Z,54.41
2023-05-09T18:08:14.168Z,55.65
2023-05-09T18:11:17.034Z,55.76
2023-05-09T18:14:19.682Z,55.39
2023-05-09T18:17:22.593Z,55.71
2023-05-09T18:20:26.090Z,57.57
2023-05-09T18:23:29.009Z,57.55
2023-05-09T18:26:33.719Z,57.66
2023-05-09T18:29:36.786Z,58.60
2023-05-09T18:32:39.401Z,58.66
2023-05-09T18:35:42.714Z,58.48
2023-05-09T18:38:45.445Z,59.46
2023-05-09T18:41:48.492Z,59.64
2023-05-09T18:44:51.208Z,59.83
2023-05-09T18:47:54.223Z,59.90
2023-05-09T18:50:57.372Z,60.53
2023-05-09T18:54:00.279Z,60.32
2023-05-09T18:57:03.363Z,60.25
2023-05-09T19:00:07.674Z,60.15
2023-05-09T19:03:10.302Z,60.61
2023-05-09T19:06:14.448Z,60.76
2023-05-09T19:09:17.222Z,60.81
2023-05-09T19:12:20.062Z,61.18
2023-05-09T19:15:23.415Z,61.72
2023-05-09T19:18:26.872Z,61.88
2023-05-09T19:21:29.857Z,62.04
2023-05-09T19:24:32.991Z,62.81
2023-05-09T19:27:35.625Z,63.03
2023-05-09T19:30:38.809Z,63.59
2023-05-09T19:33:45.634Z,64.25
2023-05-09T19:36:49.182Z,64.58
2023-05-09T19:39:51.983Z,64.90
2023-05-09T19:42:54.974Z,65.11
2023-05-09T19:45:58.519Z,65.66
2023-05-09T19:49:01.894Z,66.05
2023-05-09T19:52:04.633Z,66.48
2023-05-09T19:55:07.907Z,67.18
2023-05-09T19:58:10.813Z,67.34
2023-05-09T20:01:14.042Z,67.77
2023-05-09T20:04:21.621Z,68.11
2023-05-09T20:07:24.376Z,68.39
2023-05-09T20:10:29.317Z,68.62
2023-05-09T20:13:31.935Z,68.84
2023-05-09T20:16:35.167Z,68.96
2023-05-09T20:19:38.092Z,68.94
2023-05-09T20:22:41.026Z,69.66
2023-05-09T20:25:43.767Z,70.15
2023-05-09T20:28:46.771Z,70.28
2023-05-09T20:31:49.473Z,70.65
2023-05-09T20:34:52.221Z,70.78
2023-05-09T20:37:55.005Z,70.85
2023-05-09T20:40:58.124Z,71.24
2023-05-09T20:44:04.090Z,71.62
2023-05-09T20:47:07.170Z,71.65
2023-05-09T20:50:10.325Z,72.42
2023-05-09T20:53:13.172Z,72.56
2023-05-09T20:56:16.334Z,72.61
2023-05-09T20:59:19.231Z,73.02
2023-05-09T21:02:22.012Z,72.85
2023-05-09T21:05:25.031Z,72.90
2023-05-09T21:08:27.523Z,72.96
2023-05-09T21:11:30.336Z,72.81
2023-05-09T21:14:32.973Z,72.75
2023-05-09T21:17:35.862Z,72.61
2023-05-09T21:20:38.589Z,72.84
2023-05-09T21:23:41.821Z,72.66
2023-05-09T21:26:44.530Z,72.58
2023-05-09T21:29:49.528Z,72.99
2023-05-09T21:32:52.179Z,73.21
2023-05-09T21:35:55.227Z,73.36
2023-05-09T21:38:58.007Z,73.70
2023-05-09T21:42:00.864Z,73.60
2023-05-09T21:45:03.827Z,73.85
2023-05-09T21:48:06.898Z,74.02
2023-05-09T21:51:09.593Z,74.21
2023-05-09T21:54:12.481Z,74.47
2023-05-09T21:57:15.046Z,74.57
2023-05-09T22:00:18.429Z,74.44
2023-05-09T22:03:21.665Z,74.44
2023-05-09T22:06:24.298Z,74.33
2023-05-09T22:09:27.197Z,75.01
2023-05-09T22:12:29.823Z,75.28
2023-05-09T22:15:32.679Z,75.52
2023-05-09T22:18:35.395Z,75.76
2023-05-09T22:21:38.287Z,76.10
2023-05-09T22:24:41.795Z,76.46
2023-05-09T22:27:44.868Z,76.81
2023-05-09T22:30:47.543Z,77.37
2023-05-09T22:33:50.673Z,77.55
2023-05-09T22:36:55.105Z,78.22
2023-05-09T22:39:58.036Z,78.92
2023-05-09T22:43:00.889Z,79.23
2023-05-09T22:46:03.901Z,79.75
2023-05-09T22:49:06.651Z,79.78
2023-05-09T22:52:10.420Z,80.01
2023-05-09T22:55:13.012Z,80.19
2023-05-09T22:58:16.204Z,80.64
2023-05-09T23:01:19.125Z,80.82
2023-05-09T23:04:22.142Z,81.57
2023-05-09T23:07:24.754Z,82.01
2023-05-09T23:10:28.086Z,81.86
2023-05-09T23:13:30.941Z,82.46
2023-05-09T23:16:33.745Z,82.61
2023-05-09T23:19:37.303Z,82.81
2023-05-09T23:22:40.254Z,83.26
2023-05-09T23:25:42.895Z,83.47
2023-05-09T23:28:46.040Z,84.20
2023-05-09T23:31:48.673Z,84.12
2023-05-09T23:34:52.122Z,84.14
2023-05-09T23:37:54.699Z,84.27
2023-05-09T23:40:58.586Z,84.48
2023-05-09T23:44:03.328Z,85.17
2023-05-09T23:47:06.437Z,84.98
2023-05-09T23:50:09.061Z,85.68
2023-05-09T23:53:12.043Z,85.86
2023-05-09T23:56:14.997Z,86.19
2023-05-09T23:59:18.071Z,86.83
